createdAt,value
2022-10-25T00:16:40.823Z,3.30
2022-10-25T00:19:08.627Z,4.28
2022-10-25T00:21:36.959Z,3.70
2022-10-25T00:24:05.957Z,3.60
2022-10-25T00:26:33.867Z,3.40
2022-10-25T00:29:02.957Z,3.63
2022-10-25T00:31:35.733Z,3.45
2022-10-25T00:34:03.490Z,3.92
2022-10-25T00:36:31.595Z,3.42
2022-10-25T00:39:00.303Z,3.60
2022-10-25T00:41:30.195Z,3.42
2022-10-25T00:44:18.019Z,3.70
2022-10-25T00:46:46.502Z,3.58
2022-10-25T00:49:16.927Z,3.97
2022-10-25T00:52:05.893Z,4.25
2022-10-25T00:54:36.089Z,4.10
2022-10-25T00:57:42.994Z,4.57
2022-10-25T01:00:11.078Z,3.83
2022-10-25T01:02:39.228Z,3.80
2022-10-25T01:05:07.212Z,3.55
2022-10-25T01:07:35.412Z,4.13
2022-10-25T01:10:05.158Z,3.58
2022-10-25T01:12:32.880Z,3.95
2022-10-25T01:15:03.904Z,3.75
2022-10-25T01:17:37.845Z,3.58
2022-10-25T01:20:24.886Z,3.97
2022-10-25T01:22:52.453Z,3.55
2022-10-25T01:25:32.394Z,3.13
2022-10-25T01:28:04.578Z,3.45
2022-10-25T01:30:51.464Z,3.22
2022-10-25T01:33:38.217Z,3.33
2022-10-25T01:36:11.756Z,3.83
2022-10-25T01:38:49.324Z,3.42
2022-10-25T01:41:25.938Z,3.58
2022-10-25T01:43:53.749Z,3.55
2022-10-25T01:46:34.080Z,4.38
2022-10-25T01:49:06.173Z,4.18
2022-10-25T01:51:42.984Z,4.38
2022-10-25T01:54:27.889Z,5.00
2022-10-25T01:56:57.526Z,4.50
2022-10-25T01:59:44.368Z,4.47
2022-10-25T02:02:32.507Z,4.13
2022-10-25T02:05:19.745Z,4.20
2022-10-25T02:08:09.853Z,4.35
2022-10-25T02:10:49.121Z,5.20
2022-10-25T02:13:32.779Z,5.25
2022-10-25T02:16:07.653Z,4.50
2022-10-25T02:18:37.992Z,4.68
2022-10-25T02:21:07.077Z,4.47
2022-10-25T02:23:36.607Z,4.25
2022-10-25T02:26:08.323Z,5.18
2022-10-25T02:28:38.486Z,5.50
2022-10-25T02:31:09.845Z,5.90
2022-10-25T02:33:38.587Z,5.20
2022-10-25T02:36:13.582Z,6.35
2022-10-25T02:38:42.354Z,6.10
2022-10-25T02:41:10.615Z,6.85
2022-10-25T02:43:38.521Z,5.97
2022-10-25T02:46:08.707Z,6.28
2022-10-25T02:48:37.318Z,6.38
2022-10-25T02:51:06.169Z,5.03
2022-10-25T02:53:34.328Z,5.78
2022-10-25T02:56:09.694Z,5.28
2022-10-25T02:58:41.523Z,5.68
2022-10-25T03:01:09.743Z,5.95
2022-10-25T03:03:37.873Z,5.07
2022-10-25T03:06:05.856Z,5.55
2022-10-25T03:08:34.091Z,5.35
2022-10-25T03:11:04.201Z,5.20
2022-10-25T03:13:33.164Z,5.40
2022-10-25T03:16:01.368Z,5.35
2022-10-25T03:18:34.603Z,5.32
2022-10-25T03:21:07.955Z,4.70
2022-10-25T03:23:36.276Z,4.95
2022-10-25T03:26:03.931Z,5.03
2022-10-25T03:28:35.954Z,5.53
2022-10-25T03:31:03.651Z,4.50
2022-10-25T03:33:32.113Z,4.82
2022-10-25T03:36:00.407Z,5.05
2022-10-25T03:38:28.066Z,5.55
2022-10-25T03:40:55.727Z,4.72
2022-10-25T03:45:51.093Z,5.72
2022-10-25T03:48:21.492Z,4.32
2022-10-25T03:51:05.064Z,3.95
2022-10-25T03:53:33.637Z,4.50
2022-10-25T03:56:01.584Z,4.20
2022-10-25T03:58:29.069Z,4.03
2022-10-25T04:01:02.963Z,4.35
2022-10-25T04:03:34.199Z,4.10
2022-10-25T04:06:03.858Z,4.15
2022-10-25T04:08:32.232Z,4.35
2022-10-25T04:11:01.999Z,5.13
2022-10-25T04:13:31.631Z,4.72
2022-10-25T04:19:06.752Z,5.53
2022-10-25T04:21:34.445Z,5.72
2022-10-25T04:24:04.814Z,5.03
2022-10-25T04:26:35.610Z,4.43
2022-10-25T04:29:04.461Z,4.40
2022-10-25T04:31:33.871Z,4.60
2022-10-25T04:34:02.654Z,4.90
2022-10-25T04:36:31.870Z,4.78
2022-10-25T04:39:02.019Z,4.45
2022-10-25T04:41:30.288Z,4.75
2022-10-25T04:43:58.520Z,4.53
2022-10-25T04:46:27.065Z,4.43
2022-10-25T04:48:54.857Z,4.60
2022-10-25T04:51:22.600Z,4.07
2022-10-25T04:53:50.389Z,3.75
2022-10-25T04:56:18.373Z,3.90
2022-10-25T04:58:46.099Z,3.55
2022-10-25T05:01:16.103Z,3.40
2022-10-25T05:03:44.255Z,3.67
2022-10-25T05:06:16.872Z,3.72
2022-10-25T05:08:45.786Z,3.50
2022-10-25T05:11:15.354Z,3.28
2022-10-25T05:13:45.056Z,3.58
2022-10-25T05:16:17.389Z,3.13
2022-10-25T05:18:48.344Z,3.88
2022-10-25T05:21:16.461Z,4.03
2022-10-25T05:23:44.092Z,4.38
2022-10-25T05:26:16.447Z,3.97
2022-10-25T05:28:45.517Z,4.63
2022-10-25T05:31:16.476Z,3.92
2022-10-25T05:33:45.406Z,4.15
2022-10-25T05:36:13.585Z,3.70
2022-10-25T05:38:41.280Z,3.97
2022-10-25T05:41:09.616Z,4.53
2022-10-25T05:43:37.719Z,3.45
2022-10-25T05:46:07.952Z,3.88
2022-10-25T05:48:38.281Z,4.18
2022-10-25T05:51:28.940Z,4.63
2022-10-25T05:54:03.940Z,4.60
2022-10-25T05:56:36.101Z,4.40
2022-10-25T05:59:09.687Z,4.95
2022-10-25T06:01:55.655Z,4.25
2022-10-25T06:04:23.737Z,5.53
2022-10-25T06:06:54.044Z,5.80
2022-10-25T06:09:22.203Z,5.10
2022-10-25T06:11:53.370Z,5.40
2022-10-25T06:14:24.961Z,5.63
2022-10-25T06:16:55.537Z,5.25
2022-10-25T06:19:23.412Z,4.65
2022-10-25T06:21:52.084Z,4.47
2022-10-25T06:24:21.035Z,4.38
2022-10-25T06:26:50.994Z,5.32
2022-10-25T06:29:18.766Z,4.55
2022-10-25T06:31:46.624Z,4.85
2022-10-25T06:34:15.815Z,4.10
2022-10-25T06:36:43.553Z,4.30
2022-10-25T06:39:11.798Z,5.00
2022-10-25T06:41:41.062Z,4.57
2022-10-25T06:44:10.695Z,4.75
2022-10-25T06:49:28.643Z,6.03
2022-10-25T06:51:56.503Z,5.82
2022-10-25T06:54:25.661Z,5.97
2022-10-25T06:56:53.706Z,6.18
2022-10-25T06:59:21.272Z,5.70
2022-10-25T07:01:50.202Z,5.70
2022-10-25T07:04:18.048Z,5.85
2022-10-25T07:06:50.104Z,5.85
2022-10-25T07:09:20.762Z,6.18
2022-10-25T07:11:48.722Z,6.60
2022-10-25T07:14:16.516Z,7.88
2022-10-25T07:16:44.182Z,6.75
2022-10-25T07:19:12.255Z,7.65
2022-10-25T07:21:40.331Z,6.95
2022-10-25T07:24:11.300Z,7.40
2022-10-25T07:26:40.517Z,7.60
2022-10-25T07:29:08.685Z,7.13
2022-10-25T07:31:39.356Z,7.60
2022-10-25T07:34:07.285Z,6.90
2022-10-25T07:36:36.593Z,6.88
2022-10-25T07:39:14.264Z,7.07
2022-10-25T07:41:41.934Z,7.13
2022-10-25T07:44:15.982Z,7.30
2022-10-25T07:46:45.024Z,7.85
2022-10-25T07:49:13.183Z,7.32
2022-10-25T07:51:42.182Z,7.90
2022-10-25T07:54:10.227Z,8.80
2022-10-25T07:56:38.527Z,8.73
2022-10-25T07:59:06.401Z,9.55
2022-10-25T08:01:37.093Z,9.02
2022-10-25T08:04:05.807Z,8.45
2022-10-25T08:06:34.174Z,8.43
2022-10-25T08:09:14.476Z,8.68
2022-10-25T08:11:48.193Z,9.45
2022-10-25T08:14:16.283Z,9.07
2022-10-25T08:16:44.052Z,9.60
2022-10-25T08:19:11.978Z,9.60
2022-10-25T08:21:40.256Z,10.25
2022-10-25T08:24:08.356Z,10.13
2022-10-25T08:26:37.146Z,12.10
2022-10-25T08:29:05.817Z,11.93
2022-10-25T08:31:33.746Z,13.25
2022-10-25T08:34:04.853Z,13.85
2022-10-25T08:36:34.225Z,14.18
2022-10-25T08:39:03.292Z,13.13
2022-10-25T08:41:50.511Z,13.48
2022-10-25T08:44:42.235Z,14.10
2022-10-25T08:47:30.479Z,13.20
2022-10-25T08:50:13.092Z,12.30
2022-10-25T08:52:54.574Z,12.55
2022-10-25T08:55:58.694Z,10.82
2022-10-25T08:58:33.531Z,11.68
2022-10-25T09:01:05.944Z,10.88
2022-10-25T09:03:34.302Z,9.50
2022-10-25T09:06:02.976Z,9.85
2022-10-25T09:08:36.702Z,9.02
2022-10-25T09:11:14.192Z,9.68
2022-10-25T09:13:42.433Z,9.45
2022-10-25T09:16:17.720Z,9.32
2022-10-25T09:18:49.691Z,11.13
2022-10-25T09:21:23.565Z,10.25
2022-10-25T09:24:01.934Z,10.27
2022-10-25T09:26:40.700Z,10.30
2022-10-25T09:29:19.177Z,9.55
2022-10-25T09:31:49.740Z,9.68
2022-10-25T09:36:58.751Z,9.20
2022-10-25T09:39:46.302Z,8.50
2022-10-25T09:42:33.875Z,7.78
2022-10-25T09:45:08.915Z,8.27
2022-10-25T09:48:01.570Z,9.18
2022-10-25T09:50:33.421Z,8.32
2022-10-25T09:53:20.332Z,7.82
2022-10-25T09:55:59.032Z,7.93
2022-10-25T09:58:32.256Z,8.93
2022-10-25T10:01:14.269Z,7.53
2022-10-25T10:03:48.285Z,8.00
2022-10-25T10:06:35.036Z,7.88
2022-10-25T10:09:05.622Z,7.63
2022-10-25T10:11:33.976Z,7.07
2022-10-25T10:14:07.591Z,7.55
2022-10-25T10:16:43.493Z,7.53
2022-10-25T10:19:15.551Z,8.15
2022-10-25T10:21:44.929Z,6.97
2022-10-25T10:24:17.340Z,6.47
2022-10-25T10:26:49.233Z,6.60
2022-10-25T10:29:28.664Z,5.82
2022-10-25T10:31:58.178Z,6.07
2022-10-25T10:34:26.663Z,6.00
2022-10-25T10:37:13.414Z,5.60
2022-10-25T10:39:53.474Z,5.45
2022-10-25T10:42:27.485Z,4.60
2022-10-25T10:45:20.089Z,5.20
2022-10-25T10:47:50.969Z,4.88
2022-10-25T10:50:28.368Z,5.50
2022-10-25T10:53:00.945Z,5.15
2022-10-25T10:55:36.212Z,4.75
2022-10-25T10:58:15.848Z,4.40
2022-10-25T11:00:55.059Z,4.50
2022-10-25T11:04:00.404Z,4.30
2022-10-25T11:06:35.824Z,4.18
2022-10-25T11:09:40.459Z,3.88
2022-10-25T11:12:12.312Z,4.00
2022-10-25T11:14:40.240Z,3.60
2022-10-25T11:17:23.542Z,3.90
2022-10-25T11:20:00.821Z,3.80
2022-10-25T11:22:40.919Z,3.78
2022-10-25T11:25:23.019Z,4.45
2022-10-25T11:28:14.089Z,3.83
2022-10-25T11:31:00.581Z,3.90
2022-10-25T11:33:34.159Z,3.97
2022-10-25T11:36:27.115Z,4.68
2022-10-25T11:39:03.769Z,3.80
2022-10-25T11:41:35.948Z,3.35
2022-10-25T11:44:17.252Z,2.70
2022-10-25T11:46:58.625Z,3.00
2022-10-25T11:49:35.949Z,3.08
2022-10-25T11:52:16.880Z,2.40
2022-10-25T11:54:54.707Z,2.53
2022-10-25T11:57:46.396Z,2.17
2022-10-25T12:00:19.814Z,3.17
2022-10-25T12:03:10.223Z,2.30
2022-10-25T12:05:39.621Z,2.45
2022-10-25T12:08:07.836Z,2.55
2022-10-25T12:10:38.371Z,2.70
2022-10-25T12:13:22.040Z,2.10
2022-10-25T12:15:51.606Z,2.40
2022-10-25T12:18:32.618Z,2.63
2022-10-25T12:21:02.636Z,2.83
2022-10-25T12:23:44.463Z,3.00
2022-10-25T12:26:24.265Z,2.50
2022-10-25T12:28:52.644Z,3.13
2022-10-25T12:31:28.068Z,2.58
2022-10-25T12:34:07.673Z,2.55
2022-10-25T12:36:38.613Z,3.03
2022-10-25T12:39:14.215Z,2.60
2022-10-25T12:41:45.195Z,2.45
2022-10-25T12:44:21.736Z,1.80
2022-10-25T12:46:56.561Z,2.13
2022-10-25T12:49:32.737Z,1.85
2022-10-25T12:52:20.158Z,1.85
2022-10-25T12:55:00.845Z,1.95
2022-10-25T12:58:04.813Z,2.75
2022-10-25T13:00:39.143Z,2.63
2022-10-25T13:03:08.459Z,1.88
2022-10-25T13:05:57.729Z,2.10
2022-10-25T13:08:27.241Z,2.08
2022-10-25T13:11:11.037Z,1.95
2022-10-25T13:13:44.070Z,2.00
2022-10-25T13:16:23.160Z,1.95
2022-10-25T13:19:11.193Z,2.30
2022-10-25T13:22:11.950Z,2.30
2022-10-25T13:24:42.387Z,1.88
2022-10-25T13:27:14.253Z,1.88
2022-10-25T13:30:03.345Z,2.05
2022-10-25T13:32:32.445Z,2.20
2022-10-25T13:35:03.964Z,2.10
2022-10-25T13:37:34.755Z,1.90
2022-10-25T13:40:21.954Z,2.33
2022-10-25T13:42:50.999Z,1.77
2022-10-25T13:45:33.644Z,2.25
2022-10-25T13:48:09.936Z,2.00
2022-10-25T13:50:46.113Z,2.10
2022-10-25T13:53:26.388Z,2.00
2022-10-25T13:56:07.604Z,2.13
2022-10-25T13:58:43.987Z,2.30
2022-10-25T14:01:23.228Z,2.08
2022-10-25T14:03:53.085Z,2.13
2022-10-25T14:06:48.026Z,2.22
2022-10-25T14:09:24.903Z,2.25
2022-10-25T14:12:15.603Z,2.65
2022-10-25T14:15:00.747Z,1.63
2022-10-25T14:20:31.896Z,2.00
2022-10-25T14:23:04.200Z,2.60
2022-10-25T14:25:38.743Z,2.17
2022-10-25T14:28:08.134Z,2.05
2022-10-25T14:30:39.915Z,1.90
2022-10-25T14:33:22.197Z,1.88
2022-10-25T14:35:50.877Z,1.67
2022-10-25T14:38:26.712Z,2.20
2022-10-25T14:40:57.360Z,1.70
2022-10-25T14:46:15.832Z,2.10
2022-10-25T14:48:47.519Z,2.00
2022-10-25T14:51:27.305Z,2.10
2022-10-25T14:54:04.390Z,1.88
2022-10-25T14:56:41.018Z,1.50
2022-10-25T14:59:19.527Z,2.13
2022-10-25T15:02:11.237Z,2.28
2022-10-25T15:04:43.817Z,1.63
2022-10-25T15:07:47.205Z,1.63
2022-10-25T15:10:37.433Z,1.80
2022-10-25T15:13:12.048Z,1.70
2022-10-25T15:15:45.929Z,1.83
2022-10-25T15:18:36.870Z,2.72
2022-10-25T15:21:17.911Z,2.58
2022-10-25T15:24:06.637Z,1.52
2022-10-25T15:26:36.914Z,2.47
2022-10-25T15:29:06.758Z,1.73
2022-10-25T15:31:34.475Z,2.10
2022-10-25T15:34:04.915Z,1.98
2022-10-25T15:36:34.659Z,1.90
2022-10-25T15:39:23.717Z,2.15
2022-10-25T15:41:54.205Z,2.13
2022-10-25T15:44:24.180Z,1.60
2022-10-25T15:46:53.091Z,2.03
2022-10-25T15:49:22.352Z,1.77
2022-10-25T15:51:51.071Z,1.83
2022-10-25T15:54:20.080Z,1.75
2022-10-25T15:56:48.508Z,2.25
2022-10-25T15:59:17.841Z,1.92
2022-10-25T16:01:47.297Z,1.75
2022-10-25T16:04:17.474Z,1.70
2022-10-25T16:06:46.133Z,1.83
2022-10-25T16:09:13.775Z,2.15
2022-10-25T16:11:46.420Z,2.17
2022-10-25T16:14:30.420Z,2.20
2022-10-25T16:17:01.562Z,2.13
2022-10-25T16:22:37.813Z,2.15
2022-10-25T16:25:05.749Z,2.28
2022-10-25T16:27:33.618Z,2.10
2022-10-25T16:30:02.051Z,2.92
2022-10-25T16:32:35.546Z,2.28
2022-10-25T16:35:04.559Z,2.25
2022-10-25T16:37:33.578Z,2.30
2022-10-25T16:40:04.344Z,2.45
2022-10-25T16:42:37.128Z,2.00
2022-10-25T16:45:12.379Z,2.40
2022-10-25T16:47:41.078Z,2.10
2022-10-25T16:50:09.030Z,2.17
2022-10-25T16:52:36.851Z,1.90
2022-10-25T16:55:04.830Z,2.05
2022-10-25T16:57:33.450Z,2.08
2022-10-25T17:00:02.340Z,2.22
2022-10-25T17:02:31.068Z,1.95
2022-10-25T17:05:02.897Z,1.85
2022-10-25T17:07:31.686Z,1.75
2022-10-25T17:10:08.731Z,2.20
2022-10-25T17:12:43.251Z,1.95
2022-10-25T17:15:12.517Z,2.00
2022-10-25T17:17:41.629Z,1.80
2022-10-25T17:20:10.391Z,1.88
2022-10-25T17:22:39.147Z,2.08
2022-10-25T17:25:08.239Z,1.60
2022-10-25T17:27:40.202Z,2.08
2022-10-25T17:30:09.669Z,2.00
2022-10-25T17:32:38.019Z,2.05
2022-10-25T17:35:06.439Z,1.70
2022-10-25T17:37:37.836Z,1.70
2022-10-25T17:40:09.326Z,2.10
2022-10-25T17:42:37.286Z,2.30
2022-10-25T17:45:07.924Z,1.75
2022-10-25T17:47:38.076Z,1.88
2022-10-25T17:50:08.120Z,2.20
2022-10-25T17:52:53.770Z,1.85
2022-10-25T17:55:21.670Z,2.15
2022-10-25T17:57:50.520Z,2.15
2022-10-25T18:00:18.917Z,2.63
2022-10-25T18:02:50.743Z,1.92
2022-10-25T18:05:21.762Z,1.85
2022-10-25T18:07:51.038Z,2.00
2022-10-25T18:10:19.575Z,2.37
2022-10-25T18:12:48.920Z,2.00
2022-10-25T18:15:17.128Z,2.42
2022-10-25T18:17:47.623Z,3.15
2022-10-25T18:20:16.422Z,3.55
2022-10-25T18:22:44.224Z,3.45
2022-10-25T18:25:12.645Z,3.03
2022-10-25T18:27:40.881Z,3.00
2022-10-25T18:30:09.656Z,3.83
2022-10-25T18:32:37.549Z,7.72
2022-10-25T18:35:05.957Z,15.60
2022-10-25T18:37:34.186Z,12.15
2022-10-25T18:40:02.993Z,7.35
2022-10-25T18:42:31.989Z,6.18
2022-10-25T18:45:03.240Z,5.15
2022-10-25T18:47:34.534Z,4.18
2022-10-25T18:50:03.017Z,4.10
2022-10-25T18:52:32.704Z,4.00
2022-10-25T18:55:02.001Z,5.00
2022-10-25T18:57:32.374Z,3.92
2022-10-25T19:00:00.681Z,4.15
2022-10-25T19:02:37.482Z,4.05
2022-10-25T19:07:42.949Z,4.32
2022-10-25T19:10:11.203Z,4.15
2022-10-25T19:12:41.036Z,4.03
2022-10-25T19:15:09.903Z,3.83
2022-10-25T19:17:40.801Z,3.85
2022-10-25T19:20:09.582Z,3.88
2022-10-25T19:22:38.146Z,3.17
2022-10-25T19:25:06.221Z,4.00
2022-10-25T19:27:34.086Z,3.67
2022-10-25T19:30:08.406Z,3.53
2022-10-25T19:32:36.678Z,3.20
2022-10-25T19:35:08.866Z,3.90
2022-10-25T19:37:41.953Z,3.70
2022-10-25T19:40:10.273Z,3.40
2022-10-25T19:42:38.603Z,3.10
2022-10-25T19:45:10.308Z,3.80
2022-10-25T19:47:39.375Z,3.63
2022-10-25T19:50:08.125Z,3.60
2022-10-25T19:52:36.231Z,3.50
2022-10-25T19:57:20.700Z,3.90
2022-10-25T19:59:49.354Z,3.88
2022-10-25T20:02:17.242Z,3.45
2022-10-25T20:04:45.511Z,3.67
2022-10-25T20:07:13.435Z,3.55
2022-10-25T20:09:41.425Z,3.83
2022-10-25T20:12:09.433Z,3.33
2022-10-25T20:14:38.122Z,3.63
2022-10-25T20:17:06.234Z,4.00
2022-10-25T20:19:36.811Z,3.85
2022-10-25T20:24:36.171Z,3.95
2022-10-25T20:27:06.829Z,3.85
2022-10-25T20:32:03.892Z,4.15
2022-10-25T20:34:41.066Z,3.85
2022-10-25T20:37:10.787Z,4.47
2022-10-25T20:39:39.336Z,3.65
2022-10-25T20:42:08.747Z,3.55
2022-10-25T20:44:36.930Z,3.60
2022-10-25T20:47:04.914Z,3.55
2022-10-25T20:49:33.094Z,3.72
2022-10-25T20:52:03.014Z,4.55
2022-10-25T20:54:36.008Z,4.03
2022-10-25T20:57:12.941Z,3.80
2022-10-25T20:59:45.374Z,4.03
2022-10-25T21:02:13.614Z,4.22
2022-10-25T21:04:53.084Z,4.78
2022-10-25T21:07:22.129Z,4.65
2022-10-25T21:09:50.934Z,4.32
2022-10-25T21:12:19.164Z,4.53
2022-10-25T21:14:47.057Z,4.35
2022-10-25T21:17:14.746Z,4.63
2022-10-25T21:19:42.409Z,4.75
2022-10-25T21:22:10.691Z,5.15
2022-10-25T21:24:40.403Z,5.13
2022-10-25T21:27:10.072Z,5.13
2022-10-25T21:29:38.141Z,5.05
2022-10-25T21:32:06.204Z,5.07
2022-10-25T21:34:34.148Z,5.05
2022-10-25T21:37:02.217Z,4.55
2022-10-25T21:39:30.103Z,4.30
2022-10-25T21:41:57.859Z,4.43
2022-10-25T21:44:28.973Z,4.50
2022-10-25T21:50:04.307Z,4.85
2022-10-25T21:52:40.625Z,5.13
2022-10-25T22:01:24.474Z,4.75
2022-10-25T22:03:54.113Z,4.63
2022-10-25T22:06:23.766Z,4.40
2022-10-25T22:08:52.274Z,5.43
2022-10-25T22:11:28.624Z,4.93
2022-10-25T22:13:58.888Z,4.65
2022-10-25T22:16:27.200Z,4.63
2022-10-25T22:18:57.816Z,4.55
2022-10-25T22:23:54.023Z,4.57
2022-10-25T22:26:22.930Z,7.22
2022-10-25T22:28:57.909Z,12.32
2022-10-25T22:31:27.665Z,8.10
2022-10-25T22:33:56.776Z,5.78
2022-10-25T22:36:26.971Z,5.82
2022-10-25T22:38:55.171Z,5.82
2022-10-25T22:41:24.540Z,5.80
2022-10-25T22:43:53.116Z,5.75
2022-10-25T22:46:25.091Z,6.30
2022-10-25T22:48:57.009Z,4.90
2022-10-25T22:51:26.167Z,5.07
2022-10-25T22:53:54.303Z,5.15
2022-10-25T22:56:23.441Z,5.32
2022-10-25T22:58:52.370Z,5.75
2022-10-25T23:01:22.203Z,5.78
2022-10-25T23:03:57.811Z,5.43
2022-10-25T23:06:27.887Z,5.50
2022-10-25T23:08:56.704Z,5.85
2022-10-25T23:11:26.320Z,5.90
2022-10-25T23:13:54.336Z,6.13
2022-10-25T23:16:23.502Z,6.15
2022-10-25T23:18:51.584Z,5.75
2022-10-25T23:21:23.786Z,5.72
2022-10-25T23:23:52.979Z,6.18
2022-10-25T23:26:25.282Z,6.03
2022-10-25T23:28:54.335Z,5.80
2022-10-25T23:31:22.109Z,5.63
2022-10-25T23:33:54.128Z,6.00
2022-10-25T23:36:22.821Z,5.90
2022-10-25T23:38:51.203Z,5.70
2022-10-25T23:41:20.155Z,5.80
2022-10-25T23:43:47.989Z,6.05
2022-10-25T23:46:16.398Z,5.88
2022-10-25T23:48:43.972Z,5.68
2022-10-25T23:51:13.381Z,5.97
2022-10-25T23:53:41.924Z,6.88
2022-10-25T23:56:10.813Z,5.88
2022-10-25T23:58:39.731Z,6.22
